sensor_id;sensor_type;location;lat;lon;timestamp;temperature;humidity
86242;DHT22;76911;51.784;4.658;2024-03-02T00:00:09;7.26;84.22
86242;DHT22;76911;51.784;4.658;2024-03-02T00:02:45;7.15;84.74
86242;DHT22;76911;51.784;4.658;2024-03-02T00:05:16;7.23;84.48
86242;DHT22;76911;51.784;4.658;2024-03-02T00:07:44;7.24;84.77
86242;DHT22;76911;51.784;4.658;2024-03-02T00:10:13;7.29;84.33
86242;DHT22;76911;51.784;4.658;2024-03-02T00:12:40;7.24;84.79
86242;DHT22;76911;51.784;4.658;2024-03-02T00:18:11;7.13;85.29
86242;DHT22;76911;51.784;4.658;2024-03-02T00:20:38;7.20;84.55
86242;DHT22;76911;51.784;4.658;2024-03-02T00:23:05;7.12;85.01
86242;DHT22;76911;51.784;4.658;2024-03-02T00:25:39;7.19;84.90
86242;DHT22;76911;51.784;4.658;2024-03-02T00:28:14;7.15;85.22
86242;DHT22;76911;51.784;4.658;2024-03-02T00:33:45;7.13;85.00
86242;DHT22;76911;51.784;4.658;2024-03-02T00:36:16;7.19;84.47
86242;DHT22;76911;51.784;4.658;2024-03-02T00:38:49;7.24;84.52
86242;DHT22;76911;51.784;4.658;2024-03-02T00:41:26;7.13;84.90
86242;DHT22;76911;51.784;4.658;2024-03-02T00:46:29;7.16;84.06
86242;DHT22;76911;51.784;4.658;2024-03-02T00:48:58;7.20;84.54
86242;DHT22;76911;51.784;4.658;2024-03-02T00:51:29;7.24;84.42
86242;DHT22;76911;51.784;4.658;2024-03-02T00:53:57;7.15;84.25
86242;DHT22;76911;51.784;4.658;2024-03-02T00:56:24;7.18;84.26
86242;DHT22;76911;51.784;4.658;2024-03-02T00:58:50;7.22;84.59
86242;DHT22;76911;51.784;4.658;2024-03-02T01:01:16;7.15;84.57
86242;DHT22;76911;51.784;4.658;2024-03-02T01:03:42;7.19;84.85
86242;DHT22;76911;51.784;4.658;2024-03-02T01:06:09;7.16;84.40
86242;DHT22;76911;51.784;4.658;2024-03-02T01:08:35;7.22;84.83
86242;DHT22;76911;51.784;4.658;2024-03-02T01:11:01;7.23;84.76
86242;DHT22;76911;51.784;4.658;2024-03-02T01:13:27;7.23;85.17
86242;DHT22;76911;51.784;4.658;2024-03-02T01:15:53;7.20;84.80
86242;DHT22;76911;51.784;4.658;2024-03-02T01:18:18;7.20;84.52
86242;DHT22;76911;51.784;4.658;2024-03-02T01:20:44;7.18;84.41
86242;DHT22;76911;51.784;4.658;2024-03-02T01:23:11;7.22;84.08
86242;DHT22;76911;51.784;4.658;2024-03-02T01:25:36;7.29;83.64
86242;DHT22;76911;51.784;4.658;2024-03-02T01:28:02;7.18;84.09
86242;DHT22;76911;51.784;4.658;2024-03-02T01:30:28;7.30;84.31
86242;DHT22;76911;51.784;4.658;2024-03-02T01:32:53;7.13;83.41
86242;DHT22;76911;51.784;4.658;2024-03-02T01:35:19;7.16;83.76
86242;DHT22;76911;51.784;4.658;2024-03-02T01:37:44;7.16;83.35
86242;DHT22;76911;51.784;4.658;2024-03-02T01:40:10;7.30;83.53
86242;DHT22;76911;51.784;4.658;2024-03-02T01:42:37;7.20;83.25
86242;DHT22;76911;51.784;4.658;2024-03-02T01:45:06;7.12;83.35
86242;DHT22;76911;51.784;4.658;2024-03-02T01:47:32;7.15;83.68
86242;DHT22;76911;51.784;4.658;2024-03-02T01:49:58;7.18;83.30
86242;DHT22;76911;51.784;4.658;2024-03-02T01:52:24;7.16;83.88
86242;DHT22;76911;51.784;4.658;2024-03-02T01:54:49;7.15;84.27
86242;DHT22;76911;51.784;4.658;2024-03-02T01:57:15;7.12;84.22
86242;DHT22;76911;51.784;4.658;2024-03-02T01:59:41;7.19;83.66
86242;DHT22;76911;51.784;4.658;2024-03-02T02:02:07;7.12;83.06
86242;DHT22;76911;51.784;4.658;2024-03-02T02:04:33;7.13;83.45
86242;DHT22;76911;51.784;4.658;2024-03-02T02:06:59;7.08;83.71
86242;DHT22;76911;51.784;4.658;2024-03-02T02:09:25;7.09;83.79
86242;DHT22;76911;51.784;4.658;2024-03-02T02:11:51;7.09;83.73
86242;DHT22;76911;51.784;4.658;2024-03-02T02:14:17;7.09;83.77
86242;DHT22;76911;51.784;4.658;2024-03-02T02:16:42;7.18;83.78
86242;DHT22;76911;51.784;4.658;2024-03-02T02:19:08;7.19;83.46
86242;DHT22;76911;51.784;4.658;2024-03-02T02:21:34;7.13;83.81
86242;DHT22;76911;51.784;4.658;2024-03-02T02:24:00;7.15;83.41
86242;DHT22;76911;51.784;4.658;2024-03-02T02:26:28;7.08;83.61
86242;DHT22;76911;51.784;4.658;2024-03-02T02:28:53;7.08;83.51
86242;DHT22;76911;51.784;4.658;2024-03-02T02:31:19;7.06;83.39
86242;DHT22;76911;51.784;4.658;2024-03-02T02:33:44;7.09;83.58
86242;DHT22;76911;51.784;4.658;2024-03-02T02:36:10;7.08;83.42
86242;DHT22;76911;51.784;4.658;2024-03-02T02:38:40;7.12;83.59
86242;DHT22;76911;51.784;4.658;2024-03-02T02:41:07;7.22;83.11
86242;DHT22;76911;51.784;4.658;2024-03-02T02:43:32;7.26;82.89
86242;DHT22;76911;51.784;4.658;2024-03-02T02:45:58;7.23;82.81
86242;DHT22;76911;51.784;4.658;2024-03-02T02:48:23;7.20;82.42
86242;DHT22;76911;51.784;4.658;2024-03-02T02:50:49;7.13;82.91
86242;DHT22;76911;51.784;4.658;2024-03-02T02:53:14;7.19;82.35
86242;DHT22;76911;51.784;4.658;2024-03-02T02:55:40;7.15;82.35
86242;DHT22;76911;51.784;4.658;2024-03-02T02:58:09;7.13;82.80
86242;DHT22;76911;51.784;4.658;2024-03-02T03:00:35;7.19;82.66
86242;DHT22;76911;51.784;4.658;2024-03-02T03:03:01;7.13;82.14
86242;DHT22;76911;51.784;4.658;2024-03-02T03:05:27;7.15;82.19
86242;DHT22;76911;51.784;4.658;2024-03-02T03:07:52;7.23;82.27
86242;DHT22;76911;51.784;4.658;2024-03-02T03:10:18;7.23;82.02
86242;DHT22;76911;51.784;4.658;2024-03-02T03:12:44;7.20;82.27
86242;DHT22;76911;51.784;4.658;2024-03-02T03:15:10;7.20;82.02
86242;DHT22;76911;51.784;4.658;2024-03-02T03:17:35;7.19;82.39
86242;DHT22;76911;51.784;4.658;2024-03-02T03:20:02;7.15;82.31
86242;DHT22;76911;51.784;4.658;2024-03-02T03:22:32;7.24;81.43
86242;DHT22;76911;51.784;4.658;2024-03-02T03:24:57;7.16;82.05
86242;DHT22;76911;51.784;4.658;2024-03-02T03:27:23;7.13;81.88
86242;DHT22;76911;51.784;4.658;2024-03-02T03:29:48;7.12;81.78
86242;DHT22;76911;51.784;4.658;2024-03-02T03:32:14;7.15;82.00
86242;DHT22;76911;51.784;4.658;2024-03-02T03:34:39;7.22;81.72
86242;DHT22;76911;51.784;4.658;2024-03-02T03:37:05;7.05;81.70
86242;DHT22;76911;51.784;4.658;2024-03-02T03:39:31;6.93;82.13
86242;DHT22;76911;51.784;4.658;2024-03-02T03:41:57;6.95;81.69
86242;DHT22;76911;51.784;4.658;2024-03-02T03:44:22;6.98;82.14
86242;DHT22;76911;51.784;4.658;2024-03-02T03:46:48;7.03;81.82
86242;DHT22;76911;51.784;4.658;2024-03-02T03:49:13;7.08;82.08
86242;DHT22;76911;51.784;4.658;2024-03-02T03:51:39;7.06;82.04
86242;DHT22;76911;51.784;4.658;2024-03-02T03:54:04;7.03;81.89
86242;DHT22;76911;51.784;4.658;2024-03-02T03:56:29;7.09;81.82
86242;DHT22;76911;51.784;4.658;2024-03-02T03:58:55;7.06;81.59
86242;DHT22;76911;51.784;4.658;2024-03-02T04:01:20;7.06;81.58
86242;DHT22;76911;51.784;4.658;2024-03-02T04:03:48;7.02;81.91
86242;DHT22;76911;51.784;4.658;2024-03-02T04:06:13;7.06;81.91
86242;DHT22;76911;51.784;4.658;2024-03-02T04:08:41;7.09;81.85
86242;DHT22;76911;51.784;4.658;2024-03-02T04:11:06;7.01;81.63
86242;DHT22;76911;51.784;4.658;2024-03-02T04:13:33;6.95;82.09
86242;DHT22;76911;51.784;4.658;2024-03-02T04:15:58;7.02;81.84
86242;DHT22;76911;51.784;4.658;2024-03-02T04:18:24;7.01;81.77
86242;DHT22;76911;51.784;4.658;2024-03-02T04:20:49;7.01;81.83
86242;DHT22;76911;51.784;4.658;2024-03-02T04:23:15;6.98;81.82
86242;DHT22;76911;51.784;4.658;2024-03-02T04:25:40;7.01;81.77
86242;DHT22;76911;51.784;4.658;2024-03-02T04:28:05;7.05;81.78
86242;DHT22;76911;51.784;4.658;2024-03-02T04:30:31;6.93;82.08
86242;DHT22;76911;51.784;4.658;2024-03-02T04:32:56;6.93;81.95
86242;DHT22;76911;51.784;4.658;2024-03-02T04:35:22;6.99;81.48
86242;DHT22;76911;51.784;4.658;2024-03-02T04:37:47;6.98;81.32
86242;DHT22;76911;51.784;4.658;2024-03-02T04:40:13;7.06;81.04
86242;DHT22;76911;51.784;4.658;2024-03-02T04:42:38;7.09;80.88
86242;DHT22;76911;51.784;4.658;2024-03-02T04:45:04;7.12;80.41
86242;DHT22;76911;51.784;4.658;2024-03-02T04:47:29;7.12;80.45
86242;DHT22;76911;51.784;4.658;2024-03-02T04:49:55;7.06;80.72
86242;DHT22;76911;51.784;4.658;2024-03-02T04:52:20;7.10;80.93
86242;DHT22;76911;51.784;4.658;2024-03-02T04:54:46;7.06;80.02
86242;DHT22;76911;51.784;4.658;2024-03-02T04:57:30;6.96;81.03
86242;DHT22;76911;51.784;4.658;2024-03-02T04:59:55;6.91;81.43
86242;DHT22;76911;51.784;4.658;2024-03-02T05:02:21;6.88;81.38
86242;DHT22;76911;51.784;4.658;2024-03-02T05:04:46;6.91;81.06
86242;DHT22;76911;51.784;4.658;2024-03-02T05:07:13;6.91;81.23
86242;DHT22;76911;51.784;4.658;2024-03-02T05:09:39;6.93;80.80
86242;DHT22;76911;51.784;4.658;2024-03-02T05:12:05;6.91;81.33
86242;DHT22;76911;51.784;4.658;2024-03-02T05:15:01;6.88;80.87
86242;DHT22;76911;51.784;4.658;2024-03-02T05:17:27;6.91;80.81
86242;DHT22;76911;51.784;4.658;2024-03-02T05:19:52;6.93;80.10
86242;DHT22;76911;51.784;4.658;2024-03-02T05:22:18;6.95;80.76
86242;DHT22;76911;51.784;4.658;2024-03-02T05:24:43;6.95;80.51
86242;DHT22;76911;51.784;4.658;2024-03-02T05:27:09;6.93;80.97
86242;DHT22;76911;51.784;4.658;2024-03-02T05:29:34;6.99;80.68
86242;DHT22;76911;51.784;4.658;2024-03-02T05:32:00;6.98;80.73
86242;DHT22;76911;51.784;4.658;2024-03-02T05:34:25;7.05;80.34
86242;DHT22;76911;51.784;4.658;2024-03-02T05:36:51;6.93;80.60
86242;DHT22;76911;51.784;4.658;2024-03-02T05:39:16;6.95;80.80
86242;DHT22;76911;51.784;4.658;2024-03-02T05:41:42;6.98;81.06
86242;DHT22;76911;51.784;4.658;2024-03-02T05:44:07;6.98;80.67
86242;DHT22;76911;51.784;4.658;2024-03-02T05:46:33;6.95;80.90
86242;DHT22;76911;51.784;4.658;2024-03-02T05:48:59;6.98;81.11
86242;DHT22;76911;51.784;4.658;2024-03-02T05:51:26;6.99;81.04
86242;DHT22;76911;51.784;4.658;2024-03-02T05:53:51;6.95;80.62
86242;DHT22;76911;51.784;4.658;2024-03-02T05:56:17;6.98;80.41
86242;DHT22;76911;51.784;4.658;2024-03-02T05:58:42;6.91;80.73
86242;DHT22;76911;51.784;4.658;2024-03-02T06:01:13;6.91;80.90
86242;DHT22;76911;51.784;4.658;2024-03-02T06:03:39;6.89;81.02
86242;DHT22;76911;51.784;4.658;2024-03-02T06:06:04;6.91;80.63
86242;DHT22;76911;51.784;4.658;2024-03-02T06:08:30;6.88;80.83
86242;DHT22;76911;51.784;4.658;2024-03-02T06:10:56;6.84;80.76
86242;DHT22;76911;51.784;4.658;2024-03-02T06:13:22;6.84;80.40
86242;DHT22;76911;51.784;4.658;2024-03-02T06:15:48;6.82;80.03
86242;DHT22;76911;51.784;4.658;2024-03-02T06:18:13;6.87;79.91
86242;DHT22;76911;51.784;4.658;2024-03-02T06:20:39;6.71;79.88
86242;DHT22;76911;51.784;4.658;2024-03-02T06:23:04;6.71;79.96
86242;DHT22;76911;51.784;4.658;2024-03-02T06:25:30;6.72;79.99
86242;DHT22;76911;51.784;4.658;2024-03-02T06:27:56;6.81;78.81
86242;DHT22;76911;51.784;4.658;2024-03-02T06:30:21;6.82;78.70
86242;DHT22;76911;51.784;4.658;2024-03-02T06:32:47;6.84;79.29
86242;DHT22;76911;51.784;4.658;2024-03-02T06:35:12;6.85;79.29
86242;DHT22;76911;51.784;4.658;2024-03-02T06:37:38;6.95;78.73
86242;DHT22;76911;51.784;4.658;2024-03-02T06:40:06;6.91;79.06
86242;DHT22;76911;51.784;4.658;2024-03-02T06:42:33;6.87;79.04
86242;DHT22;76911;51.784;4.658;2024-03-02T06:44:59;6.89;79.16
86242;DHT22;76911;51.784;4.658;2024-03-02T06:47:25;6.87;79.06
86242;DHT22;76911;51.784;4.658;2024-03-02T06:49:50;6.78;79.15
86242;DHT22;76911;51.784;4.658;2024-03-02T06:52:16;6.77;79.03
86242;DHT22;76911;51.784;4.658;2024-03-02T06:54:41;6.75;79.14
86242;DHT22;76911;51.784;4.658;2024-03-02T06:57:07;6.75;78.86
86242;DHT22;76911;51.784;4.658;2024-03-02T06:59:32;6.68;79.21
86242;DHT22;76911;51.784;4.658;2024-03-02T07:01:59;6.63;79.60
86242;DHT22;76911;51.784;4.658;2024-03-02T07:04:24;6.65;79.56
86242;DHT22;76911;51.784;4.658;2024-03-02T07:06:50;6.60;79.66
86242;DHT22;76911;51.784;4.658;2024-03-02T07:09:16;6.61;79.28
86242;DHT22;76911;51.784;4.658;2024-03-02T07:11:42;6.58;80.15
86242;DHT22;76911;51.784;4.658;2024-03-02T07:14:07;6.50;80.33
86242;DHT22;76911;51.784;4.658;2024-03-02T07:16:33;6.58;79.82
86242;DHT22;76911;51.784;4.658;2024-03-02T07:19:00;6.65;79.98
86242;DHT22;76911;51.784;4.658;2024-03-02T07:21:27;6.60;80.39
86242;DHT22;76911;51.784;4.658;2024-03-02T07:23:53;6.64;80.54
86242;DHT22;76911;51.784;4.658;2024-03-02T07:26:19;6.71;80.30
86242;DHT22;76911;51.784;4.658;2024-03-02T07:28:48;6.75;80.21
86242;DHT22;76911;51.784;4.658;2024-03-02T07:31:14;6.80;80.17
86242;DHT22;76911;51.784;4.658;2024-03-02T07:33:40;6.89;80.20
86242;DHT22;76911;51.784;4.658;2024-03-02T07:36:07;6.95;79.61
86242;DHT22;76911;51.784;4.658;2024-03-02T07:38:33;6.93;79.71
86242;DHT22;76911;51.784;4.658;2024-03-02T07:41:00;7.01;79.70
86242;DHT22;76911;51.784;4.658;2024-03-02T07:43:26;6.95;79.76
86242;DHT22;76911;51.784;4.658;2024-03-02T07:45:52;7.02;79.51
86242;DHT22;76911;51.784;4.658;2024-03-02T07:48:18;7.08;79.72
86242;DHT22;76911;51.784;4.658;2024-03-02T07:50:43;7.02;79.58
86242;DHT22;76911;51.784;4.658;2024-03-02T07:53:10;7.10;79.79
86242;DHT22;76911;51.784;4.658;2024-03-02T07:55:35;7.09;79.12
86242;DHT22;76911;51.784;4.658;2024-03-02T07:58:01;7.05;79.29
86242;DHT22;76911;51.784;4.658;2024-03-02T08:00:27;7.09;79.52
86242;DHT22;76911;51.784;4.658;2024-03-02T08:02:53;7.18;79.41
86242;DHT22;76911;51.784;4.658;2024-03-02T08:05:19;7.20;78.90
86242;DHT22;76911;51.784;4.658;2024-03-02T08:07:45;7.29;78.60
86242;DHT22;76911;51.784;4.658;2024-03-02T08:10:11;7.26;78.03
86242;DHT22;76911;51.784;4.658;2024-03-02T08:12:37;7.27;78.17
86242;DHT22;76911;51.784;4.658;2024-03-02T08:15:03;7.36;77.60
86242;DHT22;76911;51.784;4.658;2024-03-02T08:17:29;7.49;77.90
86242;DHT22;76911;51.784;4.658;2024-03-02T08:19:55;7.51;77.60
86242;DHT22;76911;51.784;4.658;2024-03-02T08:22:22;7.50;77.54
86242;DHT22;76911;51.784;4.658;2024-03-02T08:24:48;7.53;77.39
86242;DHT22;76911;51.784;4.658;2024-03-02T08:27:13;7.60;77.38
86242;DHT22;76911;51.784;4.658;2024-03-02T08:29:40;7.71;76.48
86242;DHT22;76911;51.784;4.658;2024-03-02T08:32:06;7.75;77.32
86242;DHT22;76911;51.784;4.658;2024-03-02T08:34:32;7.81;76.38
86242;DHT22;76911;51.784;4.658;2024-03-02T08:36:59;7.87;76.86
86242;DHT22;76911;51.784;4.658;2024-03-02T08:39:25;7.97;76.27
86242;DHT22;76911;51.784;4.658;2024-03-02T08:41:50;8.01;76.31
86242;DHT22;76911;51.784;4.658;2024-03-02T08:44:16;8.08;75.20
86242;DHT22;76911;51.784;4.658;2024-03-02T08:46:43;8.18;75.44
86242;DHT22;76911;51.784;4.658;2024-03-02T08:49:09;8.12;74.69
86242;DHT22;76911;51.784;4.658;2024-03-02T08:51:34;8.18;73.93
86242;DHT22;76911;51.784;4.658;2024-03-02T08:54:00;8.29;74.96
86242;DHT22;76911;51.784;4.658;2024-03-02T08:56:25;8.46;74.55
86242;DHT22;76911;51.784;4.658;2024-03-02T08:58:52;8.40;74.46
86242;DHT22;76911;51.784;4.658;2024-03-02T09:01:18;8.40;73.37
86242;DHT22;76911;51.784;4.658;2024-03-02T09:03:47;8.57;74.69
86242;DHT22;76911;51.784;4.658;2024-03-02T09:06:15;8.63;73.26
86242;DHT22;76911;51.784;4.658;2024-03-02T09:08:42;8.73;73.72
86242;DHT22;76911;51.784;4.658;2024-03-02T09:11:10;8.78;72.86
86242;DHT22;76911;51.784;4.658;2024-03-02T09:13:36;8.87;73.06
86242;DHT22;76911;51.784;4.658;2024-03-02T09:16:02;8.89;72.46
86242;DHT22;76911;51.784;4.658;2024-03-02T09:18:28;8.85;72.06
86242;DHT22;76911;51.784;4.658;2024-03-02T09:20:53;8.83;71.43
86242;DHT22;76911;51.784;4.658;2024-03-02T09:23:19;8.98;73.07
86242;DHT22;76911;51.784;4.658;2024-03-02T09:25:44;9.03;71.88
86242;DHT22;76911;51.784;4.658;2024-03-02T09:28:10;9.07;71.36
86242;DHT22;76911;51.784;4.658;2024-03-02T09:30:36;9.11;70.94
86242;DHT22;76911;51.784;4.658;2024-03-02T09:33:01;9.05;71.65
86242;DHT22;76911;51.784;4.658;2024-03-02T09:35:27;9.12;70.95
86242;DHT22;76911;51.784;4.658;2024-03-02T09:37:52;9.29;72.08
86242;DHT22;76911;51.784;4.658;2024-03-02T09:40:21;9.40;69.84
86242;DHT22;76911;51.784;4.658;2024-03-02T09:42:48;9.36;69.52
86242;DHT22;76911;51.784;4.658;2024-03-02T09:45:23;9.38;70.91
86242;DHT22;76911;51.784;4.658;2024-03-02T09:47:49;9.52;69.94
86242;DHT22;76911;51.784;4.658;2024-03-02T09:50:14;9.43;68.61
86242;DHT22;76911;51.784;4.658;2024-03-02T09:52:42;9.42;70.00
86242;DHT22;76911;51.784;4.658;2024-03-02T09:55:08;9.52;69.72
86242;DHT22;76911;51.784;4.658;2024-03-02T09:57:34;9.60;69.54
86242;DHT22;76911;51.784;4.658;2024-03-02T09:59:59;9.67;69.36
86242;DHT22;76911;51.784;4.658;2024-03-02T10:02:25;9.84;69.75
86242;DHT22;76911;51.784;4.658;2024-03-02T10:04:51;9.87;68.25
86242;DHT22;76911;51.784;4.658;2024-03-02T10:07:18;9.97;67.46
86242;DHT22;76911;51.784;4.658;2024-03-02T10:09:48;9.87;67.72
86242;DHT22;76911;51.784;4.658;2024-03-02T10:12:16;10.01;67.83
86242;DHT22;76911;51.784;4.658;2024-03-02T10:14:43;10.25;68.33
86242;DHT22;76911;51.784;4.658;2024-03-02T10:17:13;10.28;66.64
86242;DHT22;76911;51.784;4.658;2024-03-02T10:19:39;10.33;66.00
86242;DHT22;76911;51.784;4.658;2024-03-02T10:22:07;10.37;65.36
86242;DHT22;76911;51.784;4.658;2024-03-02T10:24:40;10.45;67.36
86242;DHT22;76911;51.784;4.658;2024-03-02T10:29:37;10.34;64.10
86242;DHT22;76911;51.784;4.658;2024-03-02T10:32:04;10.55;64.99
86242;DHT22;76911;51.784;4.658;2024-03-02T10:34:31;10.68;63.55
86242;DHT22;76911;51.784;4.658;2024-03-02T10:36:56;10.89;62.77
86242;DHT22;76911;51.784;4.658;2024-03-02T10:39:24;10.88;62.64
86242;DHT22;76911;51.784;4.658;2024-03-02T10:41:52;10.84;60.91
86242;DHT22;76911;51.784;4.658;2024-03-02T10:44:18;10.97;62.97
86242;DHT22;76911;51.784;4.658;2024-03-02T10:46:46;10.99;61.24
86242;DHT22;76911;51.784;4.658;2024-03-02T10:49:12;11.14;61.79
86242;DHT22;76911;51.784;4.658;2024-03-02T10:51:38;11.30;60.60
86242;DHT22;76911;51.784;4.658;2024-03-02T10:54:04;11.31;58.91
86242;DHT22;76911;51.784;4.658;2024-03-02T10:59:33;11.75;58.49
86242;DHT22;76911;51.784;4.658;2024-03-02T11:02:00;11.71;59.24
86242;DHT22;76911;51.784;4.658;2024-03-02T11:04:30;11.60;61.47
86242;DHT22;76911;51.784;4.658;2024-03-02T11:07:02;11.58;60.47
86242;DHT22;76911;51.784;4.658;2024-03-02T11:09:35;11.55;61.16
86242;DHT22;76911;51.784;4.658;2024-03-02T11:14:31;11.58;60.57
86242;DHT22;76911;51.784;4.658;2024-03-02T11:17:02;11.48;61.41
86242;DHT22;76911;51.784;4.658;2024-03-02T11:19:30;11.58;60.51
86242;DHT22;76911;51.784;4.658;2024-03-02T11:21:57;11.65;59.24
86242;DHT22;76911;51.784;4.658;2024-03-02T11:27:14;11.69;59.64
86242;DHT22;76911;51.784;4.658;2024-03-02T11:30:00;11.72;60.13
86242;DHT22;76911;51.784;4.658;2024-03-02T11:32:25;11.95;60.66
86242;DHT22;76911;51.784;4.658;2024-03-02T11:34:51;12.10;58.98
86242;DHT22;76911;51.784;4.658;2024-03-02T11:37:19;12.03;58.33
86242;DHT22;76911;51.784;4.658;2024-03-02T11:39:50;12.37;59.50
86242;DHT22;76911;51.784;4.658;2024-03-02T11:42:16;12.81;56.86
86242;DHT22;76911;51.784;4.658;2024-03-02T11:44:45;12.99;55.97
86242;DHT22;76911;51.784;4.658;2024-03-02T11:47:14;13.08;57.33
86242;DHT22;76911;51.784;4.658;2024-03-02T11:52:09;12.77;57.22
86242;DHT22;76911;51.784;4.658;2024-03-02T11:54:41;13.01;55.53
86242;DHT22;76911;51.784;4.658;2024-03-02T11:57:16;13.64;55.56
86242;DHT22;76911;51.784;4.658;2024-03-02T11:59:43;13.38;55.09
86242;DHT22;76911;51.784;4.658;2024-03-02T12:02:19;13.43;54.70
86242;DHT22;76911;51.784;4.658;2024-03-02T12:04:46;13.36;54.82
86242;DHT22;76911;51.784;4.658;2024-03-02T12:07:22;13.69;55.49
86242;DHT22;76911;51.784;4.658;2024-03-02T12:09:48;13.66;53.81
86242;DHT22;76911;51.784;4.658;2024-03-02T12:12:14;13.43;54.96
86242;DHT22;76911;51.784;4.658;2024-03-02T12:14:51;13.32;55.87
86242;DHT22;76911;51.784;4.658;2024-03-02T12:17:17;13.25;56.59
86242;DHT22;76911;51.784;4.658;2024-03-02T12:19:44;13.38;56.05
86242;DHT22;76911;51.784;4.658;2024-03-02T12:22:10;13.91;54.62
86242;DHT22;76911;51.784;4.658;2024-03-02T12:24:35;14.35;52.31
86242;DHT22;76911;51.784;4.658;2024-03-02T12:27:03;14.24;53.19
86242;DHT22;76911;51.784;4.658;2024-03-02T12:29:30;14.18;53.02
86242;DHT22;76911;51.784;4.658;2024-03-02T12:31:55;14.42;53.03
86242;DHT22;76911;51.784;4.658;2024-03-02T12:34:22;14.61;52.77
86242;DHT22;76911;51.784;4.658;2024-03-02T12:36:49;14.52;52.42
86242;DHT22;76911;51.784;4.658;2024-03-02T12:39:18;13.74;54.03
86242;DHT22;76911;51.784;4.658;2024-03-02T12:41:45;13.19;54.31
86242;DHT22;76911;51.784;4.658;2024-03-02T12:44:11;12.99;56.00
86242;DHT22;76911;51.784;4.658;2024-03-02T12:46:37;12.95;56.59
86242;DHT22;76911;51.784;4.658;2024-03-02T12:49:13;13.22;56.38
86242;DHT22;76911;51.784;4.658;2024-03-02T12:51:40;13.47;56.12
86242;DHT22;76911;51.784;4.658;2024-03-02T12:54:10;13.50;55.25
86242;DHT22;76911;51.784;4.658;2024-03-02T12:56:36;13.20;55.86
86242;DHT22;76911;51.784;4.658;2024-03-02T12:59:03;13.04;55.99
86242;DHT22;76911;51.784;4.658;2024-03-02T13:01:29;12.84;55.64
86242;DHT22;76911;51.784;4.658;2024-03-02T13:03:55;12.78;56.87
86242;DHT22;76911;51.784;4.658;2024-03-02T13:06:22;13.12;55.92
86242;DHT22;76911;51.784;4.658;2024-03-02T13:08:49;13.18;57.51
86242;DHT22;76911;51.784;4.658;2024-03-02T13:11:16;13.30;56.10
86242;DHT22;76911;51.784;4.658;2024-03-02T13:13:42;13.15;56.64
86242;DHT22;76911;51.784;4.658;2024-03-02T13:16:11;13.15;56.94
86242;DHT22;76911;51.784;4.658;2024-03-02T13:18:41;13.32;56.61
86242;DHT22;76911;51.784;4.658;2024-03-02T13:21:08;13.05;56.70
86242;DHT22;76911;51.784;4.658;2024-03-02T13:23:33;13.09;57.23
86242;DHT22;76911;51.784;4.658;2024-03-02T13:25:59;12.97;58.13
86242;DHT22;76911;51.784;4.658;2024-03-02T13:28:25;13.04;57.33
86242;DHT22;76911;51.784;4.658;2024-03-02T13:30:51;13.09;58.33
86242;DHT22;76911;51.784;4.658;2024-03-02T13:33:16;13.32;56.62
86242;DHT22;76911;51.784;4.658;2024-03-02T13:35:49;13.56;56.88
86242;DHT22;76911;51.784;4.658;2024-03-02T13:38:19;13.56;56.48
86242;DHT22;76911;51.784;4.658;2024-03-02T13:40:45;13.27;56.89
86242;DHT22;76911;51.784;4.658;2024-03-02T13:43:11;13.22;56.89
86242;DHT22;76911;51.784;4.658;2024-03-02T13:45:38;13.06;58.17
86242;DHT22;76911;51.784;4.658;2024-03-02T13:48:03;12.99;58.05
86242;DHT22;76911;51.784;4.658;2024-03-02T13:50:29;13.06;58.08
86242;DHT22;76911;51.784;4.658;2024-03-02T13:52:55;13.22;57.40
86242;DHT22;76911;51.784;4.658;2024-03-02T13:55:22;13.35;58.21
86242;DHT22;76911;51.784;4.658;2024-03-02T13:57:48;13.40;56.58
86242;DHT22;76911;51.784;4.658;2024-03-02T14:00:16;13.09;56.93
86242;DHT22;76911;51.784;4.658;2024-03-02T14:02:42;13.04;57.09
86242;DHT22;76911;51.784;4.658;2024-03-02T14:05:08;13.05;57.98
86242;DHT22;76911;51.784;4.658;2024-03-02T14:07:37;12.99;57.76
86242;DHT22;76911;51.784;4.658;2024-03-02T14:10:03;13.12;57.40
86242;DHT22;76911;51.784;4.658;2024-03-02T14:12:29;13.11;57.51
86242;DHT22;76911;51.784;4.658;2024-03-02T14:14:54;12.99;56.94
86242;DHT22;76911;51.784;4.658;2024-03-02T14:17:24;12.81;57.96
86242;DHT22;76911;51.784;4.658;2024-03-02T14:19:49;12.65;57.96
86242;DHT22;76911;51.784;4.658;2024-03-02T14:22:15;12.81;58.13
86242;DHT22;76911;51.784;4.658;2024-03-02T14:24:43;12.81;57.09
86242;DHT22;76911;51.784;4.658;2024-03-02T14:27:09;12.89;57.07
86242;DHT22;76911;51.784;4.658;2024-03-02T14:29:34;13.09;57.42
86242;DHT22;76911;51.784;4.658;2024-03-02T14:32:03;13.22;57.22
86242;DHT22;76911;51.784;4.658;2024-03-02T14:34:29;13.30;57.44
86242;DHT22;76911;51.784;4.658;2024-03-02T14:36:55;13.26;57.02
86242;DHT22;76911;51.784;4.658;2024-03-02T14:39:21;13.27;57.35
86242;DHT22;76911;51.784;4.658;2024-03-02T14:41:46;13.15;57.51
86242;DHT22;76911;51.784;4.658;2024-03-02T14:44:12;13.18;57.52
86242;DHT22;76911;51.784;4.658;2024-03-02T14:46:38;13.22;57.66
86242;DHT22;76911;51.784;4.658;2024-03-02T14:49:04;13.16;56.49
86242;DHT22;76911;51.784;4.658;2024-03-02T14:51:29;13.08;56.66
86242;DHT22;76911;51.784;4.658;2024-03-02T14:53:55;13.11;56.53
86242;DHT22;76911;51.784;4.658;2024-03-02T14:56:21;13.11;56.91
86242;DHT22;76911;51.784;4.658;2024-03-02T14:58:46;13.19;56.54
86242;DHT22;76911;51.784;4.658;2024-03-02T15:01:13;13.16;56.74
86242;DHT22;76911;51.784;4.658;2024-03-02T15:03:39;13.05;57.37
86242;DHT22;76911;51.784;4.658;2024-03-02T15:06:05;13.06;57.26
86242;DHT22;76911;51.784;4.658;2024-03-02T15:08:32;13.06;56.82
86242;DHT22;76911;51.784;4.658;2024-03-02T15:10:58;13.02;57.67
86242;DHT22;76911;51.784;4.658;2024-03-02T15:13:25;12.94;58.00
86242;DHT22;76911;51.784;4.658;2024-03-02T15:15:52;13.01;58.50
86242;DHT22;76911;51.784;4.658;2024-03-02T15:18:18;13.02;58.68
86242;DHT22;76911;51.784;4.658;2024-03-02T15:20:43;13.05;58.44
86242;DHT22;76911;51.784;4.658;2024-03-02T15:23:09;12.95;58.69
86242;DHT22;76911;51.784;4.658;2024-03-02T15:25:34;13.06;58.48
86242;DHT22;76911;51.784;4.658;2024-03-02T15:28:00;13.08;58.43
86242;DHT22;76911;51.784;4.658;2024-03-02T15:30:25;13.06;58.60
86242;DHT22;76911;51.784;4.658;2024-03-02T15:32:51;13.05;58.34
86242;DHT22;76911;51.784;4.658;2024-03-02T15:35:17;13.09;59.15
86242;DHT22;76911;51.784;4.658;2024-03-02T15:37:42;13.08;59.41
86242;DHT22;76911;51.784;4.658;2024-03-02T15:40:08;12.97;59.53
86242;DHT22;76911;51.784;4.658;2024-03-02T15:42:35;13.02;60.36
86242;DHT22;76911;51.784;4.658;2024-03-02T15:45:01;12.92;60.62
86242;DHT22;76911;51.784;4.658;2024-03-02T15:47:27;12.92;60.39
86242;DHT22;76911;51.784;4.658;2024-03-02T15:49:53;13.01;60.23
86242;DHT22;76911;51.784;4.658;2024-03-02T15:52:18;12.97;60.21
86242;DHT22;76911;51.784;4.658;2024-03-02T15:54:45;12.98;60.54
86242;DHT22;76911;51.784;4.658;2024-03-02T15:57:10;12.95;60.40